createdAt,value
2022-11-18T00:01:47.754Z,0.79
2022-11-18T00:04:14.493Z,0.74
2022-11-18T00:06:41.150Z,0.63
2022-11-18T00:09:08.591Z,0.64
2022-11-18T00:11:54.078Z,0.56
2022-11-18T00:14:24.666Z,0.51
2022-11-18T00:16:51.224Z,0.39
2022-11-18T00:19:19.201Z,0.45
2022-11-18T00:21:46.098Z,0.37
2022-11-18T00:24:12.719Z,0.26
2022-11-18T00:26:39.342Z,0.35
2022-11-18T00:29:06.470Z,0.38
2022-11-18T00:31:33.119Z,0.46
2022-11-18T00:34:02.798Z,0.43
2022-11-18T00:36:29.586Z,0.46
2022-11-18T00:38:56.277Z,0.61
2022-11-18T00:41:22.937Z,0.54
2022-11-18T00:43:49.569Z,0.39
2022-11-18T00:46:16.248Z,0.35
2022-11-18T00:48:42.860Z,0.28
2022-11-18T00:51:18.750Z,0.21
2022-11-18T00:53:45.648Z,0.21
2022-11-18T00:56:12.254Z,0.31
2022-11-18T00:58:38.932Z,0.42
2022-11-18T01:01:05.865Z,0.42
2022-11-18T01:03:32.599Z,0.44
2022-11-18T01:05:59.289Z,0.41
2022-11-18T01:08:26.127Z,0.24
2022-11-18T01:10:52.863Z,0.20
2022-11-18T01:13:20.236Z,0.28
2022-11-18T01:15:50.344Z,0.35
2022-11-18T01:18:17.534Z,0.51
2022-11-18T01:20:44.752Z,0.58
2022-11-18T01:23:11.736Z,0.61
2022-11-18T01:25:41.678Z,0.39
2022-11-18T01:28:08.348Z,0.49
2022-11-18T01:30:38.632Z,0.52
2022-11-18T01:33:05.348Z,0.39
2022-11-18T01:35:36.037Z,0.39
2022-11-18T01:38:03.185Z,0.46
2022-11-18T01:40:29.900Z,0.53
2022-11-18T01:42:56.556Z,0.55
2022-11-18T01:45:38.711Z,0.36
2022-11-18T01:48:07.698Z,0.49
2022-11-18T01:50:35.029Z,0.42
2022-11-18T01:53:03.644Z,0.52
2022-11-18T01:55:31.688Z,0.56
2022-11-18T01:58:00.873Z,0.65
2022-11-18T02:00:27.477Z,0.62
2022-11-18T02:02:54.201Z,0.26
2022-11-18T02:05:20.831Z,0.20
2022-11-18T02:07:47.458Z,0.22
2022-11-18T02:10:18.561Z,0.14
2022-11-18T02:12:48.171Z,0.14
2022-11-18T02:15:15.204Z,0.23
2022-11-18T02:17:45.452Z,0.43
2022-11-18T02:20:13.528Z,0.20
2022-11-18T02:22:52.439Z,0.13
2022-11-18T02:25:34.390Z,0.25
2022-11-18T02:28:01.036Z,0.18
2022-11-18T02:30:27.708Z,0.23
2022-11-18T02:32:55.757Z,0.23
2022-11-18T02:35:24.934Z,0.13
2022-11-18T02:37:54.874Z,0.16
2022-11-18T02:40:23.405Z,0.18
2022-11-18T02:42:52.401Z,0.23
2022-11-18T02:45:19.229Z,0.08
2022-11-18T02:47:46.397Z,-0.03
2022-11-18T02:50:14.300Z,-0.05
2022-11-18T02:52:40.984Z,0.06
2022-11-18T02:55:08.291Z,0.17
2022-11-18T02:57:35.256Z,0.24
2022-11-18T03:00:01.994Z,0.26
2022-11-18T03:02:28.684Z,0.35
2022-11-18T03:04:56.206Z,0.38
2022-11-18T03:07:26.001Z,0.38
2022-11-18T03:09:52.798Z,0.41
2022-11-18T03:12:24.409Z,0.46
2022-11-18T03:15:00.476Z,0.51
2022-11-18T03:17:32.891Z,0.30
2022-11-18T03:20:03.479Z,0.39
2022-11-18T03:22:35.304Z,0.45
2022-11-18T03:25:09.531Z,0.45
2022-11-18T03:27:42.244Z,0.48
2022-11-18T03:30:10.192Z,0.12
2022-11-18T03:32:38.113Z,0.11
2022-11-18T03:35:09.330Z,0.26
2022-11-18T03:37:36.012Z,0.28
2022-11-18T03:40:13.992Z,0.36
2022-11-18T03:42:40.667Z,0.39
2022-11-18T03:45:10.395Z,0.44
2022-11-18T03:47:39.294Z,0.37
2022-11-18T03:50:07.962Z,0.29
2022-11-18T03:52:35.021Z,0.20
2022-11-18T03:55:02.972Z,0.21
2022-11-18T03:57:35.367Z,0.30
2022-11-18T04:00:11.731Z,0.31
2022-11-18T04:02:38.648Z,0.13
2022-11-18T04:05:06.071Z,0.21
2022-11-18T04:07:34.081Z,0.14
2022-11-18T04:10:20.472Z,0.20
2022-11-18T04:12:49.027Z,0.21
2022-11-18T04:15:15.750Z,0.14
2022-11-18T04:17:45.471Z,0.12
2022-11-18T04:20:16.580Z,0.21
2022-11-18T04:22:43.290Z,0.03
2022-11-18T04:25:10.296Z,0.05
2022-11-18T04:27:36.999Z,0.10
2022-11-18T04:30:04.465Z,0.12
2022-11-18T04:32:31.179Z,0.14
2022-11-18T04:35:50.759Z,0.14
2022-11-18T04:38:21.774Z,0.09
2022-11-18T04:43:46.567Z,0.09
2022-11-18T04:46:16.252Z,-0.01
2022-11-18T04:48:43.097Z,-0.11
2022-11-18T04:51:09.722Z,-0.14
2022-11-18T04:53:36.643Z,-0.15
2022-11-18T04:56:06.847Z,0.27
2022-11-18T04:58:33.777Z,0.58
2022-11-18T05:01:00.417Z,0.89
2022-11-18T05:03:27.103Z,0.84
2022-11-18T05:05:53.696Z,0.84
2022-11-18T05:08:20.342Z,0.71
2022-11-18T05:10:47.010Z,0.49
2022-11-18T05:13:13.627Z,0.54
2022-11-18T05:15:40.191Z,0.54
2022-11-18T05:18:06.816Z,0.56
2022-11-18T05:20:37.357Z,0.64
2022-11-18T05:23:06.841Z,0.63
2022-11-18T05:25:33.517Z,0.57
2022-11-18T05:28:00.119Z,0.64
2022-11-18T05:30:26.720Z,0.91
2022-11-18T05:32:53.358Z,0.95
2022-11-18T05:35:20.009Z,0.76
2022-11-18T05:37:46.603Z,0.96
2022-11-18T05:40:13.218Z,0.80
2022-11-18T05:42:58.609Z,0.92
2022-11-18T05:45:25.266Z,0.72
2022-11-18T05:48:01.027Z,0.46
2022-11-18T05:50:27.623Z,0.31
2022-11-18T05:52:54.416Z,0.32
2022-11-18T05:55:21.132Z,0.38
2022-11-18T05:57:48.177Z,0.36
2022-11-18T06:00:15.164Z,0.47
2022-11-18T06:02:41.903Z,0.66
2022-11-18T06:05:08.743Z,0.81
2022-11-18T06:07:37.331Z,0.50
2022-11-18T06:10:05.991Z,0.53
2022-11-18T06:12:35.010Z,0.58
2022-11-18T06:15:06.277Z,0.27
2022-11-18T06:17:35.552Z,0.12
2022-11-18T06:20:02.505Z,-0.02
2022-11-18T06:22:29.122Z,-0.29
2022-11-18T06:24:55.766Z,-0.10
2022-11-18T06:27:22.391Z,-0.32
2022-11-18T06:29:49.048Z,-0.45
2022-11-18T06:32:15.731Z,-0.60
2022-11-18T06:34:42.346Z,-0.44
2022-11-18T06:37:15.212Z,-0.41
2022-11-18T06:39:41.834Z,-0.43
2022-11-18T06:42:08.544Z,-0.47
2022-11-18T06:44:35.270Z,-0.34
2022-11-18T06:47:02.729Z,-0.39
2022-11-18T06:49:29.459Z,-0.54
2022-11-18T06:51:56.186Z,-0.53
2022-11-18T06:54:22.894Z,-0.77
2022-11-18T06:56:57.190Z,-0.91
2022-11-18T06:59:25.023Z,-0.91
2022-11-18T07:01:53.607Z,-0.71
2022-11-18T07:04:20.690Z,-0.64
2022-11-18T07:06:48.388Z,-0.89
2022-11-18T07:09:16.261Z,-1.01
2022-11-18T07:11:43.481Z,-0.97
2022-11-18T07:14:10.252Z,-0.92
2022-11-18T07:16:36.955Z,-0.97
2022-11-18T07:19:08.244Z,-0.88
2022-11-18T07:21:35.021Z,-1.00
2022-11-18T07:24:01.783Z,-0.79
2022-11-18T07:26:28.420Z,-0.80
2022-11-18T07:28:55.053Z,-0.99
2022-11-18T07:31:21.735Z,-1.04
2022-11-18T07:33:48.809Z,-1.09
2022-11-18T07:36:16.714Z,-0.99
2022-11-18T07:38:44.712Z,-0.83
2022-11-18T07:41:13.167Z,-1.01
2022-11-18T07:43:40.853Z,-1.07
2022-11-18T07:46:11.936Z,-1.11
2022-11-18T07:48:38.614Z,-1.03
2022-11-18T07:51:06.166Z,-0.91
2022-11-18T07:53:34.838Z,-0.88
2022-11-18T07:56:02.026Z,-0.95
2022-11-18T07:58:28.717Z,-0.99
2022-11-18T08:00:56.065Z,-0.85
2022-11-18T08:03:27.473Z,-0.87
2022-11-18T08:05:59.371Z,-0.33
2022-11-18T08:08:27.166Z,-0.59
2022-11-18T08:10:57.794Z,-0.68
2022-11-18T08:13:26.152Z,-0.95
2022-11-18T08:15:54.389Z,-0.99
2022-11-18T08:18:22.252Z,-1.06
2022-11-18T08:20:49.605Z,-1.10
2022-11-18T08:23:16.684Z,-1.13
2022-11-18T08:25:44.059Z,-1.14
2022-11-18T08:28:11.390Z,-1.14
2022-11-18T08:30:38.201Z,-1.09
2022-11-18T08:33:04.862Z,-0.96
2022-11-18T08:35:32.075Z,-0.76
2022-11-18T08:37:58.998Z,-0.97
2022-11-18T08:40:25.696Z,-0.88
2022-11-18T08:42:52.650Z,-0.80
2022-11-18T08:45:19.367Z,-0.80
2022-11-18T08:47:48.546Z,-0.67
2022-11-18T08:50:15.191Z,-0.53
2022-11-18T08:52:41.817Z,-0.56
2022-11-18T08:55:08.559Z,-0.64
2022-11-18T08:57:35.164Z,-0.54
2022-11-18T09:00:01.957Z,-0.38
2022-11-18T09:02:28.756Z,-0.39
2022-11-18T09:04:55.359Z,-0.38
2022-11-18T09:07:22.094Z,-0.53
2022-11-18T09:09:48.788Z,-0.60
2022-11-18T09:12:17.666Z,-0.71
2022-11-18T09:17:31.484Z,-0.65
2022-11-18T09:19:58.122Z,-0.59
2022-11-18T09:22:24.766Z,-0.69
2022-11-18T09:24:51.584Z,-0.59
2022-11-18T09:27:18.351Z,-0.68
2022-11-18T09:29:45.291Z,-0.48
2022-11-18T09:32:12.087Z,-0.40
2022-11-18T09:34:38.675Z,-0.32
2022-11-18T09:37:06.907Z,-0.31
2022-11-18T09:39:39.763Z,-0.29
2022-11-18T09:42:16.732Z,-0.25
2022-11-18T09:45:02.188Z,-0.21
2022-11-18T09:47:33.036Z,-0.46
2022-11-18T09:50:26.822Z,-0.61
2022-11-18T09:53:02.368Z,-0.56
2022-11-18T09:55:29.006Z,-0.40
2022-11-18T09:57:56.083Z,-0.35
2022-11-18T10:00:24.096Z,-0.40
2022-11-18T10:03:05.094Z,-0.42
2022-11-18T10:05:33.784Z,-0.45
2022-11-18T10:08:05.364Z,-0.36
2022-11-18T10:10:38.306Z,-0.28
2022-11-18T10:13:11.294Z,-0.28
2022-11-18T10:15:44.007Z,-0.25
2022-11-18T10:18:45.009Z,-0.34
2022-11-18T10:21:09.452Z,-0.36
2022-11-18T10:23:39.071Z,-0.36
2022-11-18T10:26:05.651Z,-0.21
2022-11-18T10:28:32.311Z,-0.26
2022-11-18T10:31:06.253Z,-0.46
2022-11-18T10:33:32.955Z,-0.33
2022-11-18T10:36:08.883Z,-0.26
2022-11-18T10:38:35.563Z,-0.26
2022-11-18T10:41:03.004Z,-0.13
2022-11-18T10:43:46.562Z,-0.08
2022-11-18T10:46:19.517Z,-0.26
2022-11-18T10:48:46.143Z,-0.27
2022-11-18T10:51:23.280Z,-0.23
2022-11-18T10:53:49.901Z,-0.09
2022-11-18T10:56:16.503Z,-0.10
2022-11-18T10:58:44.167Z,0.01
2022-11-18T11:01:16.084Z,0.12
2022-11-18T11:03:42.883Z,0.18
2022-11-18T11:06:24.064Z,0.30
2022-11-18T11:08:51.726Z,0.21
2022-11-18T11:11:26.172Z,0.36
2022-11-18T11:13:58.638Z,0.45
2022-11-18T11:16:26.569Z,0.52
2022-11-18T11:18:55.690Z,0.52
2022-11-18T11:21:25.334Z,0.66
2022-11-18T11:23:51.939Z,0.87
2022-11-18T11:29:27.426Z,1.11
2022-11-18T11:32:03.254Z,0.93
2022-11-18T11:34:35.944Z,0.76
2022-11-18T11:37:05.573Z,0.57
2022-11-18T11:39:51.304Z,0.36
2022-11-18T11:42:20.875Z,0.27
2022-11-18T11:44:57.100Z,0.08
2022-11-18T11:47:42.680Z,-0.01
2022-11-18T11:50:20.503Z,0.04
2022-11-18T11:52:55.075Z,-0.07
2022-11-18T11:55:21.655Z,0.10
2022-11-18T11:58:13.614Z,-0.04
2022-11-18T12:00:41.275Z,-0.16
2022-11-18T12:03:26.775Z,-0.08
2022-11-18T12:05:53.454Z,-0.21
2022-11-18T12:08:26.378Z,-0.25
2022-11-18T12:11:08.452Z,-0.10
2022-11-18T12:13:40.960Z,-0.08
2022-11-18T12:16:13.589Z,-0.29
2022-11-18T12:18:46.267Z,-0.03
2022-11-18T12:21:35.018Z,-0.17
2022-11-18T12:24:17.280Z,-0.09
2022-11-18T12:26:44.435Z,0.05
2022-11-18T12:29:20.585Z,0.21
2022-11-18T12:31:47.764Z,0.42
2022-11-18T12:34:19.020Z,0.65
2022-11-18T12:36:45.787Z,0.90
2022-11-18T12:39:24.780Z,1.16
2022-11-18T12:42:10.709Z,1.24
2022-11-18T12:44:39.360Z,1.40
2022-11-18T12:47:10.038Z,1.57
2022-11-18T12:49:36.652Z,1.75
2022-11-18T12:52:04.167Z,1.86
2022-11-18T12:54:30.768Z,1.92
2022-11-18T12:57:18.265Z,1.76
2022-11-18T12:59:44.889Z,2.02
2022-11-18T13:02:11.801Z,2.15
2022-11-18T13:04:45.099Z,2.27
2022-11-18T13:07:31.317Z,1.96
2022-11-18T13:09:58.100Z,1.95
2022-11-18T13:12:28.002Z,2.02
2022-11-18T13:15:13.473Z,2.06
2022-11-18T13:17:54.871Z,2.26
2022-11-18T13:20:31.292Z,2.00
2022-11-18T13:23:17.191Z,2.12
2022-11-18T13:25:45.856Z,2.21
2022-11-18T13:28:12.456Z,2.27
2022-11-18T13:30:43.139Z,2.40
2022-11-18T13:33:10.180Z,2.32
2022-11-18T13:35:36.782Z,2.72
2022-11-18T13:38:03.435Z,2.84
2022-11-18T13:40:31.675Z,3.00
2022-11-18T13:42:58.285Z,3.04
2022-11-18T13:45:26.569Z,3.00
2022-11-18T13:47:55.412Z,3.08
2022-11-18T13:50:38.522Z,2.95
2022-11-18T13:53:23.513Z,2.89
2022-11-18T13:55:54.884Z,2.63
2022-11-18T13:58:55.836Z,2.68
2022-11-18T14:01:23.195Z,2.70
2022-11-18T14:03:58.805Z,2.71
2022-11-18T14:06:28.485Z,2.79
2022-11-18T14:09:13.925Z,2.70
2022-11-18T14:11:41.969Z,2.63
2022-11-18T14:14:09.734Z,2.75
2022-11-18T14:16:37.327Z,2.86
2022-11-18T14:19:04.052Z,2.64
2022-11-18T14:21:31.552Z,2.61
2022-11-18T14:23:59.673Z,2.44
2022-11-18T14:26:26.988Z,2.24
2022-11-18T14:28:54.412Z,2.12
2022-11-18T14:31:25.234Z,1.99
2022-11-18T14:34:13.743Z,1.86
2022-11-18T14:36:40.944Z,1.71
2022-11-18T14:39:27.503Z,1.62
2022-11-18T14:41:54.671Z,1.33
2022-11-18T14:44:21.978Z,1.23
2022-11-18T14:46:49.946Z,1.03
2022-11-18T14:49:18.510Z,0.91
2022-11-18T14:51:45.659Z,0.91
2022-11-18T14:54:20.824Z,0.86
2022-11-18T14:56:52.440Z,0.80
2022-11-18T14:59:20.300Z,0.66
2022-11-18T15:01:47.442Z,0.61
2022-11-18T15:04:15.848Z,0.57
2022-11-18T15:06:42.547Z,0.65
2022-11-18T15:09:09.271Z,0.56
2022-11-18T15:11:35.914Z,0.46
2022-11-18T15:14:02.900Z,0.42
2022-11-18T15:16:30.095Z,0.35
2022-11-18T15:19:00.420Z,0.26
2022-11-18T15:21:27.345Z,0.27
2022-11-18T15:23:54.091Z,0.14
2022-11-18T15:26:24.796Z,0.03
2022-11-18T15:28:52.392Z,0.05
2022-11-18T15:31:19.055Z,-0.05
2022-11-18T15:33:46.138Z,-0.09
2022-11-18T15:36:13.935Z,-0.10
2022-11-18T15:38:41.016Z,-0.13
2022-11-18T15:41:08.069Z,-0.14
2022-11-18T15:43:35.677Z,-0.17
2022-11-18T15:46:02.284Z,-0.22
2022-11-18T15:48:28.969Z,-0.24
2022-11-18T15:50:58.402Z,-0.41
2022-11-18T15:53:25.010Z,-0.52
2022-11-18T15:55:51.647Z,-0.46
2022-11-18T15:58:18.304Z,-0.42
2022-11-18T16:00:45.415Z,-0.37
2022-11-18T16:03:12.080Z,-0.40
2022-11-18T16:05:38.704Z,-0.44
2022-11-18T16:08:05.455Z,-0.43
2022-11-18T16:10:50.871Z,-0.57
2022-11-18T16:13:23.461Z,-0.73
2022-11-18T16:15:50.083Z,-0.73
2022-11-18T16:18:18.063Z,-0.84
2022-11-18T16:20:44.755Z,-0.80
2022-11-18T16:23:11.400Z,-0.77
2022-11-18T16:25:42.866Z,-0.80
2022-11-18T16:28:09.458Z,-0.80
2022-11-18T16:30:54.872Z,-0.85
2022-11-18T16:33:21.586Z,-0.94
2022-11-18T16:35:48.352Z,-0.96
2022-11-18T16:38:14.960Z,-0.98
2022-11-18T16:40:43.393Z,-1.13
2022-11-18T16:43:12.840Z,-1.12
2022-11-18T16:45:39.614Z,-1.21
2022-11-18T16:48:06.315Z,-1.37
2022-11-18T16:50:33.077Z,-1.30
2022-11-18T16:52:59.736Z,-1.34
2022-11-18T16:55:26.357Z,-1.25
2022-11-18T16:57:52.969Z,-1.31
2022-11-18T17:00:19.764Z,-1.28
2022-11-18T17:02:46.414Z,-1.31
2022-11-18T17:05:13.807Z,-1.32
2022-11-18T17:07:40.450Z,-1.28
2022-11-18T17:10:19.666Z,-1.32
2022-11-18T17:12:47.016Z,-1.40
2022-11-18T17:15:14.274Z,-1.41
2022-11-18T17:17:42.133Z,-1.41
2022-11-18T17:20:08.928Z,-1.39
2022-11-18T17:22:35.576Z,-1.46
2022-11-18T17:25:05.359Z,-1.55
2022-11-18T17:27:32.337Z,-1.78
2022-11-18T17:29:59.050Z,-1.68
2022-11-18T17:32:25.666Z,-1.62
2022-11-18T17:34:52.387Z,-1.55
2022-11-18T17:37:19.012Z,-1.48
2022-11-18T17:39:45.598Z,-1.55
2022-11-18T17:42:17.587Z,-1.54
2022-11-18T17:44:47.380Z,-1.62
2022-11-18T17:47:14.044Z,-1.63
2022-11-18T17:49:42.337Z,-1.69
2022-11-18T17:52:09.159Z,-1.77
2022-11-18T17:54:35.824Z,-1.79
2022-11-18T17:57:02.433Z,-1.87
2022-11-18T17:59:29.064Z,-1.88
2022-11-18T18:01:59.261Z,-1.91
2022-11-18T18:04:26.600Z,-1.88
2022-11-18T18:06:53.609Z,-1.89
2022-11-18T18:09:28.569Z,-1.92
2022-11-18T18:11:58.780Z,-1.86
2022-11-18T18:14:25.396Z,-1.88
2022-11-18T18:16:52.185Z,-1.95
2022-11-18T18:19:20.140Z,-1.99
2022-11-18T18:21:47.145Z,-1.99
2022-11-18T18:24:15.465Z,-2.01
2022-11-18T18:26:42.293Z,-2.01
2022-11-18T18:29:09.034Z,-2.03
2022-11-18T18:31:36.507Z,-2.10
2022-11-18T18:34:03.603Z,-2.18
2022-11-18T18:36:30.424Z,-2.23
2022-11-18T18:38:58.379Z,-2.23
2022-11-18T18:41:25.381Z,-2.26
2022-11-18T18:43:52.286Z,-2.24
2022-11-18T18:46:29.143Z,-2.30
2022-11-18T18:48:57.279Z,-2.37
2022-11-18T18:51:24.566Z,-2.33
2022-11-18T18:53:51.640Z,-2.35
2022-11-18T18:56:18.266Z,-2.36
2022-11-18T18:58:50.359Z,-2.39
2022-11-18T19:01:17.591Z,-2.45
2022-11-18T19:03:46.698Z,-2.44
2022-11-18T19:06:53.222Z,-2.45
2022-11-18T19:09:13.530Z,-2.48
2022-11-18T19:12:05.274Z,-2.53
2022-11-18T19:14:42.255Z,-2.57
2022-11-18T19:17:12.866Z,-2.62
2022-11-18T19:20:00.673Z,-2.73
2022-11-18T19:22:31.503Z,-2.72
2022-11-18T19:28:09.600Z,-2.70
2022-11-18T19:31:21.062Z,-2.68
2022-11-18T19:33:47.764Z,-2.70
2022-11-18T19:36:14.800Z,-2.73
2022-11-18T19:38:41.509Z,-2.79
2022-11-18T19:41:09.705Z,-2.73
2022-11-18T19:43:36.477Z,-2.76
2022-11-18T19:46:03.266Z,-2.82
2022-11-18T19:48:29.947Z,-2.89
2022-11-18T19:51:06.923Z,-2.92
2022-11-18T19:53:35.158Z,-2.94
2022-11-18T19:56:03.265Z,-3.04
2022-11-18T19:58:33.412Z,-3.00
2022-11-18T20:01:08.373Z,-3.02
2022-11-18T20:03:35.274Z,-2.97
2022-11-18T20:06:02.381Z,-2.97
2022-11-18T20:08:30.665Z,-2.96
2022-11-18T20:11:00.775Z,-2.99
2022-11-18T20:13:30.406Z,-2.98
2022-11-18T20:16:04.461Z,-2.99
2022-11-18T20:18:31.268Z,-2.98
2022-11-18T20:21:04.417Z,-2.98
2022-11-18T20:23:31.089Z,-2.95
2022-11-18T20:25:58.033Z,-2.94
2022-11-18T20:28:24.714Z,-3.01
2022-11-18T20:30:55.432Z,-2.98
2022-11-18T20:33:22.068Z,-2.99
2022-11-18T20:35:48.784Z,-3.05
2022-11-18T20:38:15.449Z,-3.08
2022-11-18T20:40:42.130Z,-3.11
2022-11-18T20:43:13.269Z,-3.27
2022-11-18T20:45:43.771Z,-3.41
2022-11-18T20:48:11.179Z,-3.57
2022-11-18T20:50:38.385Z,-3.46
2022-11-18T20:53:05.613Z,-3.40
2022-11-18T20:55:36.068Z,-3.45
2022-11-18T20:58:02.755Z,-3.38
2022-11-18T21:00:29.390Z,-3.32
2022-11-18T21:02:56.162Z,-3.30
2022-11-18T21:05:22.828Z,-3.27
2022-11-18T21:07:50.614Z,-3.24
2022-11-18T21:10:17.805Z,-3.31
2022-11-18T21:13:06.518Z,-3.36
2022-11-18T21:15:33.298Z,-3.31
2022-11-18T21:17:59.948Z,-3.27
2022-11-18T21:20:45.416Z,-3.28
2022-11-18T21:23:12.157Z,-3.25
2022-11-18T21:25:38.966Z,-3.27
2022-11-18T21:28:05.711Z,-3.30
2022-11-18T21:30:32.497Z,-3.31
2022-11-18T21:32:59.163Z,-3.30
2022-11-18T21:35:25.883Z,-3.26
2022-11-18T21:37:52.654Z,-3.22
2022-11-18T21:40:19.402Z,-3.20
2022-11-18T21:42:46.031Z,-3.21
2022-11-18T21:45:15.960Z,-3.21
2022-11-18T21:47:53.406Z,-3.16
2022-11-18T21:50:22.375Z,-3.15
2022-11-18T21:52:49.105Z,-3.13
2022-11-18T21:55:16.792Z,-3.19
2022-11-18T21:57:43.450Z,-3.23
2022-11-18T22:00:13.414Z,-3.19
2022-11-18T22:02:40.061Z,-3.20
2022-11-18T22:05:07.476Z,-3.18
2022-11-18T22:07:34.395Z,-3.20
2022-11-18T22:10:01.124Z,-3.27
2022-11-18T22:12:27.899Z,-3.26
2022-11-18T22:14:54.572Z,-3.28
2022-11-18T22:17:21.199Z,-3.25
2022-11-18T22:19:47.815Z,-3.25
2022-11-18T22:22:14.441Z,-3.29
2022-11-18T22:24:41.053Z,-3.32
2022-11-18T22:27:11.356Z,-3.32
2022-11-18T22:29:38.338Z,-3.31
2022-11-18T22:32:05.116Z,-3.36
2022-11-18T22:34:31.733Z,-3.41
2022-11-18T22:36:58.328Z,-3.46
2022-11-18T22:39:24.912Z,-3.52
2022-11-18T22:42:10.304Z,-3.52
2022-11-18T22:44:36.987Z,-3.55
2022-11-18T22:47:03.604Z,-3.55
2022-11-18T22:49:30.523Z,-3.56
2022-11-18T22:51:57.195Z,-3.58
2022-11-18T22:54:38.256Z,-3.62
2022-11-18T22:57:05.716Z,-3.60
2022-11-18T22:59:32.315Z,-3.60
2022-11-18T23:01:59.355Z,-3.55
2022-11-18T23:04:25.967Z,-3.55
2022-11-18T23:06:52.640Z,-3.52
2022-11-18T23:09:19.521Z,-3.50
2022-11-18T23:12:05.139Z,-3.56
2022-11-18T23:14:31.817Z,-3.56
2022-11-18T23:16:58.500Z,-3.56
2022-11-18T23:19:25.105Z,-3.58
2022-11-18T23:21:51.690Z,-3.61
2022-11-18T23:24:18.820Z,-3.63
2022-11-18T23:26:45.765Z,-3.65
2022-11-18T23:29:15.620Z,-3.63
2022-11-18T23:31:43.090Z,-3.62
2022-11-18T23:34:11.802Z,-3.59
2022-11-18T23:36:38.461Z,-3.61
2022-11-18T23:39:05.175Z,-3.63
2022-11-18T23:41:32.021Z,-3.67
2022-11-18T23:43:58.769Z,-3.69
2022-11-18T23:46:27.932Z,-3.69
2022-11-18T23:48:56.337Z,-3.69
2022-11-18T23:51:23.295Z,-3.73
2022-11-18T23:53:54.149Z,-3.70
2022-11-18T23:56:21.480Z,-3.74
2022-11-18T23:58:49.017Z,-3.74
